Terminal Aerodrome Forecast
Issued by NWS

Home | Current Version | Previous Version | Text Only | Print | Product List | Glossary On
Versions: 1 2 3 4 5 6 7 8 9 10 11 12 13
000
FTUS46 KPDT 291128
TAFRDM
TAF
KRDM 291128Z 2912/3012 21009KT P6SM BKN120
     FM291300 22010G20KT P6SM VCSH BKN060 OVC080
     FM291500 23020G30KT P6SM VCSH BKN080
     FM291900 28020G30KT P6SM SCT080
     FM300300 29010KT P6SM SCT080
     FM300700 17008KT P6SM SCT200=

USA.gov is the U.S. government's official web portal to all federal, state and local government web resources and services.